createdAt,value
2023-05-02T00:01:16.898Z,21.03
2023-05-02T00:03:18.498Z,21.02
2023-05-02T00:05:19.975Z,21.00
2023-05-02T00:07:21.532Z,21.04
2023-05-02T00:09:22.846Z,21.05
2023-05-02T00:11:24.154Z,21.06
2023-05-02T00:13:25.562Z,21.08
2023-05-02T00:15:29.987Z,21.08
2023-05-02T00:17:31.924Z,21.09
2023-05-02T00:19:33.338Z,21.11
2023-05-02T00:21:35.182Z,21.10
2023-05-02T00:23:36.517Z,21.08
2023-05-02T00:25:37.851Z,21.07
2023-05-02T00:27:39.141Z,21.04
2023-05-02T00:29:41.117Z,21.06
2023-05-02T00:31:42.563Z,21.07
2023-05-02T00:33:43.980Z,21.09
2023-05-02T00:35:45.316Z,21.09
2023-05-02T00:37:49.494Z,21.07
2023-05-02T00:39:50.923Z,21.05
2023-05-02T00:41:52.249Z,21.03
2023-05-02T00:43:53.567Z,21.03
2023-05-02T00:45:54.931Z,21.05
2023-05-02T00:47:56.995Z,21.06
2023-05-02T00:49:59.284Z,21.08
2023-05-02T00:52:00.848Z,21.09
2023-05-02T00:54:02.251Z,21.09
2023-05-02T00:56:03.606Z,21.07
2023-05-02T00:58:04.932Z,21.07
2023-05-02T01:00:06.920Z,21.07
2023-05-02T01:02:08.276Z,21.09
2023-05-02T01:04:09.827Z,21.08
2023-05-02T01:06:11.264Z,21.08
2023-05-02T01:08:12.802Z,21.08
2023-05-02T01:10:14.109Z,21.07
2023-05-02T01:12:15.412Z,21.08
2023-05-02T01:14:16.749Z,21.10
2023-05-02T01:16:18.694Z,21.12
2023-05-02T01:18:20.085Z,21.11
2023-05-02T01:20:21.418Z,21.13
2023-05-02T01:22:23.199Z,21.15
2023-05-02T01:24:24.561Z,21.11
2023-05-02T01:26:25.905Z,21.08
2023-05-02T01:28:27.259Z,21.06
2023-05-02T01:30:29.813Z,21.08
2023-05-02T01:32:31.228Z,21.07
2023-05-02T01:34:32.571Z,21.08
2023-05-02T01:36:33.895Z,21.08
2023-05-02T01:38:35.223Z,21.08
2023-05-02T01:40:36.644Z,21.08
2023-05-02T01:42:37.955Z,21.07
2023-05-02T01:44:39.749Z,21.09
2023-05-02T01:46:41.116Z,21.09
2023-05-02T01:48:42.488Z,21.11
2023-05-02T01:50:44.620Z,21.11
2023-05-02T01:52:45.921Z,21.08
2023-05-02T01:54:47.259Z,21.07
2023-05-02T01:56:49.366Z,21.08
2023-05-02T01:58:50.876Z,21.12
2023-05-02T02:00:52.185Z,21.15
2023-05-02T02:02:53.535Z,21.17
2023-05-02T02:04:54.859Z,21.19
2023-05-02T02:06:58.389Z,21.20
2023-05-02T02:08:59.746Z,21.20
2023-05-02T02:11:02.183Z,21.20
2023-05-02T02:13:03.488Z,21.20
2023-05-02T02:15:04.784Z,21.20
2023-05-02T02:17:07.115Z,21.20
2023-05-02T02:19:08.581Z,21.19
2023-05-02T02:21:09.943Z,21.17
2023-05-02T02:23:11.316Z,21.15
2023-05-02T02:25:12.620Z,21.15
2023-05-02T02:27:13.917Z,21.15
2023-05-02T02:29:15.268Z,21.15
2023-05-02T02:31:16.726Z,21.14
2023-05-02T02:33:18.053Z,21.15
2023-05-02T02:35:19.354Z,21.14
2023-05-02T02:37:20.712Z,21.14
2023-05-02T02:39:22.021Z,21.15
2023-05-02T02:41:23.485Z,21.26
2023-05-02T02:43:24.800Z,21.20
2023-05-02T02:45:26.110Z,21.06
2023-05-02T02:47:28.439Z,20.93
2023-05-02T02:49:30.358Z,20.85
2023-05-02T02:51:32.034Z,20.78
2023-05-02T02:53:33.645Z,20.76
2023-05-02T02:55:34.945Z,20.74
2023-05-02T02:57:36.395Z,20.95
2023-05-02T02:59:37.736Z,20.87
2023-05-02T03:01:39.127Z,20.83
2023-05-02T03:03:40.797Z,20.80
2023-05-02T03:05:42.132Z,20.78
2023-05-02T03:07:43.642Z,20.76
2023-05-02T03:09:45.064Z,20.75
2023-05-02T03:11:46.576Z,20.67
2023-05-02T03:13:48.832Z,20.69
2023-05-02T03:15:50.195Z,20.72
2023-05-02T03:17:52.188Z,20.73
2023-05-02T03:19:53.520Z,20.76
2023-05-02T03:21:54.900Z,20.80
2023-05-02T03:23:56.506Z,20.81
2023-05-02T03:25:58.019Z,20.83
2023-05-02T03:27:59.431Z,20.79
2023-05-02T03:30:01.078Z,20.77
2023-05-02T03:32:02.666Z,20.75
2023-05-02T03:34:04.089Z,20.73
2023-05-02T03:36:05.391Z,20.72
2023-05-02T03:38:06.880Z,20.69
2023-05-02T03:40:08.186Z,20.68
2023-05-02T03:42:09.498Z,20.70
2023-05-02T03:44:10.813Z,20.71
2023-05-02T03:46:12.358Z,20.72
2023-05-02T03:48:13.705Z,20.76
2023-05-02T03:50:15.074Z,20.77
2023-05-02T03:52:16.568Z,20.80
2023-05-02T03:54:18.103Z,20.81
2023-05-02T03:56:22.348Z,20.82
2023-05-02T03:58:25.292Z,20.81
2023-05-02T04:00:26.753Z,20.80
2023-05-02T04:02:28.302Z,20.77
2023-05-02T04:04:29.832Z,20.75
2023-05-02T04:06:32.174Z,20.72
2023-05-02T04:08:33.681Z,20.67
2023-05-02T04:10:34.973Z,20.63
2023-05-02T04:12:36.291Z,20.60
2023-05-02T04:14:37.641Z,20.55
2023-05-02T04:16:39.453Z,20.52
2023-05-02T04:18:40.830Z,20.49
2023-05-02T04:20:42.118Z,20.47
2023-05-02T04:22:43.490Z,20.49
2023-05-02T04:24:44.900Z,20.51
2023-05-02T04:26:49.081Z,20.51
2023-05-02T04:28:50.508Z,20.55
2023-05-02T04:30:51.949Z,20.58
2023-05-02T04:32:53.691Z,20.61
2023-05-02T04:34:55.094Z,20.66
2023-05-02T04:36:56.464Z,20.67
2023-05-02T04:38:57.907Z,20.69
2023-05-02T04:40:59.250Z,20.74
2023-05-02T04:43:10.169Z,20.75
2023-05-02T04:45:11.545Z,20.76
2023-05-02T04:47:12.976Z,20.76
2023-05-02T04:49:14.319Z,20.74
2023-05-02T04:51:17.097Z,20.73
2023-05-02T04:53:18.625Z,20.75
2023-05-02T04:55:19.966Z,20.74
2023-05-02T04:57:23.083Z,20.74
2023-05-02T04:59:24.657Z,20.73
2023-05-02T05:01:28.097Z,20.72
2023-05-02T05:03:33.681Z,20.70
2023-05-02T05:05:35.218Z,20.67
2023-05-02T05:07:36.561Z,20.65
2023-05-02T05:09:37.851Z,20.64
2023-05-02T05:11:39.708Z,20.65
2023-05-02T05:13:41.005Z,20.67
2023-05-02T05:15:42.426Z,20.69
2023-05-02T05:17:43.846Z,20.71
2023-05-02T05:19:45.207Z,20.75
2023-05-02T05:21:46.519Z,20.76
2023-05-02T05:23:48.319Z,20.74
2023-05-02T05:25:49.634Z,20.72
2023-05-02T05:27:52.526Z,20.70
2023-05-02T05:29:53.868Z,20.69
2023-05-02T05:31:55.304Z,20.71
2023-05-02T05:33:57.287Z,20.71
2023-05-02T05:35:58.628Z,20.70
2023-05-02T05:38:00.018Z,20.72
2023-05-02T05:40:01.635Z,20.69
2023-05-02T05:42:03.684Z,20.68
2023-05-02T05:44:05.373Z,20.69
2023-05-02T05:46:06.719Z,20.72
2023-05-02T05:48:10.973Z,20.73
2023-05-02T05:50:12.369Z,20.74
2023-05-02T05:52:13.720Z,20.73
2023-05-02T05:54:15.021Z,20.76
2023-05-02T05:56:16.392Z,20.79
2023-05-02T05:58:17.841Z,20.82
2023-05-02T06:00:19.483Z,20.81
2023-05-02T06:02:21.269Z,20.79
2023-05-02T06:04:22.704Z,20.78
2023-05-02T06:06:24.160Z,20.76
2023-05-02T06:08:25.537Z,20.74
2023-05-02T06:10:26.851Z,20.72
2023-05-02T06:12:28.361Z,20.70
2023-05-02T06:14:29.672Z,20.66
2023-05-02T06:16:31.133Z,20.64
2023-05-02T06:18:32.583Z,20.64
2023-05-02T06:20:33.882Z,20.62
2023-05-02T06:22:35.191Z,20.61
2023-05-02T06:24:37.888Z,20.60
2023-05-02T06:26:39.695Z,20.61
2023-05-02T06:28:41.113Z,20.62
2023-05-02T06:30:42.498Z,20.64
2023-05-02T06:32:44.256Z,20.67
2023-05-02T06:34:45.659Z,20.71
2023-05-02T06:36:47.000Z,20.70
2023-05-02T06:38:48.586Z,20.70
2023-05-02T06:40:49.919Z,20.69
2023-05-02T06:42:51.259Z,20.68
2023-05-02T06:44:52.620Z,20.69
2023-05-02T06:46:55.720Z,20.70
2023-05-02T06:48:57.105Z,20.73
2023-05-02T06:50:58.417Z,20.73
2023-05-02T06:52:59.734Z,20.73
2023-05-02T06:55:01.111Z,20.73
2023-05-02T06:57:02.702Z,20.70
2023-05-02T06:59:03.989Z,20.68
2023-05-02T07:01:05.809Z,20.70
2023-05-02T07:03:07.220Z,20.72
2023-05-02T07:05:08.590Z,20.74
2023-05-02T07:07:09.892Z,20.76
2023-05-02T07:09:11.743Z,20.75
2023-05-02T07:11:13.047Z,20.73
2023-05-02T07:13:14.376Z,20.72
2023-05-02T07:15:16.602Z,20.71
2023-05-02T07:17:18.005Z,20.69
2023-05-02T07:19:19.364Z,20.67
2023-05-02T07:21:20.784Z,20.65
2023-05-02T07:23:22.130Z,20.62
2023-05-02T07:25:23.476Z,20.57
2023-05-02T07:27:24.819Z,20.58
2023-05-02T07:29:26.155Z,20.60
2023-05-02T07:31:27.538Z,20.61
2023-05-02T07:33:28.861Z,20.62
2023-05-02T07:35:30.174Z,20.64
2023-05-02T07:37:33.588Z,20.67
2023-05-02T07:39:35.738Z,19.87
2023-05-02T07:41:37.220Z,20.75
2023-05-02T07:43:38.523Z,20.79
2023-05-02T07:45:39.831Z,20.82
2023-05-02T07:47:41.903Z,20.81
2023-05-02T07:49:43.388Z,20.78
2023-05-02T07:51:45.747Z,20.77
2023-05-02T07:53:47.062Z,20.75
2023-05-02T07:55:48.363Z,20.74
2023-05-02T07:57:49.657Z,20.75
2023-05-02T07:59:51.129Z,20.79
2023-05-02T08:01:52.447Z,20.81
2023-05-02T08:03:53.998Z,20.82
2023-05-02T08:05:55.472Z,20.83
2023-05-02T08:07:56.801Z,20.84
2023-05-02T08:09:58.100Z,20.84
2023-05-02T08:11:59.406Z,20.84
2023-05-02T08:14:00.867Z,20.83
2023-05-02T08:16:02.738Z,20.83
2023-05-02T08:18:04.135Z,20.80
2023-05-02T08:20:05.655Z,20.79
2023-05-02T08:22:06.992Z,20.77
2023-05-02T08:24:08.283Z,20.76
2023-05-02T08:26:09.804Z,20.73
2023-05-02T08:28:11.223Z,20.72
2023-05-02T08:30:12.519Z,20.71
2023-05-02T08:32:13.856Z,20.70
2023-05-02T08:34:15.632Z,20.68
2023-05-02T08:36:19.865Z,20.67
2023-05-02T08:38:21.147Z,20.65
2023-05-02T08:40:34.061Z,20.64
2023-05-02T08:42:43.127Z,20.61
2023-05-02T08:44:44.451Z,20.60
2023-05-02T08:46:45.919Z,20.58
2023-05-02T08:48:50.020Z,20.57
2023-05-02T08:50:51.757Z,20.56
2023-05-02T08:52:53.088Z,20.55
2023-05-02T08:54:54.419Z,20.57
2023-05-02T08:56:55.766Z,20.58
2023-05-02T08:58:57.075Z,20.63
2023-05-02T09:00:58.493Z,20.67
2023-05-02T09:02:59.866Z,20.67
2023-05-02T09:05:02.426Z,20.69
2023-05-02T09:07:03.908Z,20.67
2023-05-02T09:09:05.282Z,20.68
2023-05-02T09:11:06.682Z,20.67
2023-05-02T09:13:07.978Z,20.68
2023-05-02T09:15:09.454Z,20.67
2023-05-02T09:17:10.980Z,20.67
2023-05-02T09:19:12.346Z,20.66
2023-05-02T09:21:13.651Z,20.66
2023-05-02T09:23:14.951Z,20.66
2023-05-02T09:25:16.829Z,20.67
2023-05-02T09:27:18.149Z,20.72
2023-05-02T09:29:19.484Z,20.75
2023-05-02T09:31:43.845Z,20.76
2023-05-02T09:33:42.839Z,20.75
2023-05-02T09:35:44.253Z,20.75
2023-05-02T09:37:45.736Z,20.76
2023-05-02T09:39:47.222Z,20.76
2023-05-02T09:41:48.575Z,20.73
2023-05-02T09:43:49.901Z,20.74
2023-05-02T09:45:51.206Z,20.75
2023-05-02T09:47:52.780Z,20.75
2023-05-02T09:49:54.414Z,20.75
2023-05-02T09:51:55.859Z,20.74
2023-05-02T09:53:57.150Z,20.67
2023-05-02T09:55:58.625Z,20.62
2023-05-02T09:58:00.180Z,20.63
2023-05-02T10:00:01.471Z,20.67
2023-05-02T10:02:03.173Z,20.70
2023-05-02T10:04:04.622Z,20.71
2023-05-02T10:06:06.072Z,20.69
2023-05-02T10:08:07.567Z,20.67
2023-05-02T10:10:08.872Z,20.65
2023-05-02T10:12:11.429Z,20.62
2023-05-02T10:14:12.783Z,20.59
2023-05-02T10:16:14.202Z,20.54
2023-05-02T10:18:15.764Z,20.50
2023-05-02T10:20:17.299Z,20.47
2023-05-02T10:22:18.616Z,20.45
2023-05-02T10:24:19.947Z,20.43
2023-05-02T10:26:23.085Z,20.42
2023-05-02T10:28:24.413Z,20.41
2023-05-02T10:30:25.886Z,20.41
2023-05-02T10:32:27.246Z,20.43
2023-05-02T10:34:28.607Z,20.47
2023-05-02T10:36:32.249Z,20.50
2023-05-02T10:38:33.731Z,20.58
2023-05-02T10:40:35.044Z,20.62
2023-05-02T10:42:36.359Z,20.63
2023-05-02T10:44:37.707Z,20.67
2023-05-02T10:46:41.280Z,20.66
2023-05-02T10:48:42.744Z,20.67
2023-05-02T10:50:44.951Z,20.67
2023-05-02T10:52:46.390Z,20.64
2023-05-02T10:54:47.685Z,20.62
2023-05-02T10:56:49.024Z,20.59
2023-05-02T10:58:50.390Z,20.60
2023-05-02T11:00:51.793Z,20.63
2023-05-02T11:02:53.245Z,20.70
2023-05-02T11:04:54.594Z,20.75
2023-05-02T11:06:55.901Z,20.75
2023-05-02T11:08:57.240Z,20.75
2023-05-02T11:10:58.556Z,20.74
2023-05-02T11:13:02.171Z,20.74
2023-05-02T11:15:03.621Z,20.69
2023-05-02T11:17:05.135Z,20.68
2023-05-02T11:19:06.554Z,20.64
2023-05-02T11:21:07.858Z,20.62
2023-05-02T11:23:09.168Z,20.57
2023-05-02T11:25:10.498Z,20.54
2023-05-02T11:27:11.811Z,20.52
2023-05-02T11:29:13.101Z,20.50
2023-05-02T11:31:14.409Z,20.52
2023-05-02T11:33:17.324Z,20.58
2023-05-02T11:35:18.918Z,20.63
2023-05-02T11:37:21.031Z,20.66
2023-05-02T11:39:23.042Z,20.67
2023-05-02T11:41:24.381Z,20.67
2023-05-02T11:43:26.213Z,20.67
2023-05-02T11:45:27.636Z,20.67
2023-05-02T11:47:29.593Z,20.62
2023-05-02T11:49:31.644Z,20.50
2023-05-02T11:51:32.935Z,20.42
2023-05-02T11:53:34.774Z,20.38
2023-05-02T11:55:36.084Z,20.33
2023-05-02T11:57:37.412Z,20.29
2023-05-02T11:59:38.701Z,20.25
2023-05-02T12:01:40.024Z,20.22
2023-05-02T12:03:41.664Z,20.18
2023-05-02T12:05:43.231Z,20.16
2023-05-02T12:07:50.570Z,20.18
2023-05-02T12:09:52.641Z,20.22
2023-05-02T12:11:54.076Z,20.26
2023-05-02T12:13:55.447Z,20.32
2023-05-02T12:15:56.962Z,20.39
2023-05-02T12:17:58.444Z,20.45
2023-05-02T12:19:59.851Z,20.49
2023-05-02T12:22:01.376Z,20.54
2023-05-02T12:24:02.815Z,20.56
2023-05-02T12:26:04.143Z,20.56
2023-05-02T12:28:05.457Z,20.56
2023-05-02T12:30:06.752Z,20.55
2023-05-02T12:32:08.378Z,20.56
2023-05-02T12:34:13.198Z,20.56
2023-05-02T12:36:14.501Z,20.54
2023-05-02T12:38:16.098Z,20.52
2023-05-02T12:40:20.256Z,20.53
2023-05-02T12:42:21.552Z,20.57
2023-05-02T12:44:23.120Z,20.60
2023-05-02T12:46:24.432Z,20.60
2023-05-02T12:48:26.445Z,20.60
2023-05-02T12:50:27.796Z,20.57
2023-05-02T12:52:29.164Z,20.54
2023-05-02T12:54:30.462Z,20.53
2023-05-02T12:56:34.879Z,20.50
2023-05-02T12:58:36.211Z,20.50
2023-05-02T13:00:37.805Z,20.51
2023-05-02T13:02:39.226Z,20.55
2023-05-02T13:04:41.299Z,20.56
2023-05-02T13:06:43.588Z,20.61
2023-05-02T13:08:46.468Z,20.61
2023-05-02T13:10:48.187Z,20.61
2023-05-02T13:12:49.765Z,20.64
2023-05-02T13:14:51.098Z,20.65
2023-05-02T13:16:53.585Z,20.68
2023-05-02T13:18:55.151Z,20.70
2023-05-02T13:20:56.544Z,20.71
2023-05-02T13:22:57.970Z,20.70
2023-05-02T13:25:02.685Z,20.70
2023-05-02T13:27:04.272Z,20.69
2023-05-02T13:29:06.080Z,20.68
2023-05-02T13:31:07.916Z,20.66
2023-05-02T13:33:09.374Z,20.63
2023-05-02T13:35:14.024Z,20.64
2023-05-02T13:37:15.411Z,20.62
2023-05-02T13:39:16.750Z,20.59
2023-05-02T13:41:19.105Z,20.56
2023-05-02T13:43:20.467Z,20.54
2023-05-02T13:45:21.841Z,20.47
2023-05-02T13:47:23.395Z,20.40
2023-05-02T13:49:24.866Z,20.52
2023-05-02T13:51:27.383Z,21.00
2023-05-02T13:53:28.731Z,20.84
2023-05-02T13:55:30.157Z,21.06
2023-05-02T13:57:31.771Z,21.06
2023-05-02T13:59:33.090Z,20.87
2023-05-02T14:01:34.418Z,21.16
2023-05-02T14:03:36.147Z,21.74
2023-05-02T14:05:41.013Z,22.15
2023-05-02T14:07:42.313Z,22.35
2023-05-02T14:09:46.735Z,22.40
2023-05-02T14:11:48.725Z,22.13
2023-05-02T14:13:50.223Z,22.13
2023-05-02T14:15:51.579Z,22.33
2023-05-02T14:17:53.373Z,22.52
2023-05-02T14:19:54.727Z,22.25
2023-05-02T14:21:56.015Z,22.71
2023-05-02T14:23:57.322Z,22.07
2023-05-02T14:25:58.714Z,21.94
2023-05-02T14:28:00.575Z,22.20
2023-05-02T14:30:02.105Z,22.14
2023-05-02T14:32:03.659Z,21.87
2023-05-02T14:34:06.844Z,21.44
2023-05-02T14:36:09.743Z,21.20
2023-05-02T14:38:11.034Z,21.09
2023-05-02T14:40:12.361Z,20.98
2023-05-02T14:42:13.672Z,20.91
2023-05-02T14:44:15.124Z,20.87
2023-05-02T14:46:16.549Z,20.82
2023-05-02T14:48:18.010Z,20.81
2023-05-02T14:50:19.472Z,20.78
2023-05-02T14:52:20.764Z,20.77
2023-05-02T14:54:22.847Z,20.77
2023-05-02T14:56:24.345Z,20.79
2023-05-02T14:58:25.705Z,20.79
2023-05-02T15:00:27.014Z,20.81
2023-05-02T15:02:28.430Z,20.81
2023-05-02T15:04:30.350Z,20.81
2023-05-02T15:06:31.970Z,20.77
2023-05-02T15:08:33.290Z,20.80
2023-05-02T15:10:34.649Z,20.81
2023-05-02T15:12:36.465Z,19.98
2023-05-02T15:14:37.782Z,20.77
2023-05-02T15:16:39.713Z,20.77
2023-05-02T15:18:41.219Z,20.75
2023-05-02T15:20:44.524Z,20.71
2023-05-02T15:22:45.840Z,20.65
2023-05-02T15:24:50.102Z,20.61
2023-05-02T15:26:51.501Z,20.60
2023-05-02T15:28:52.937Z,20.57
2023-05-02T15:30:54.283Z,20.57
2023-05-02T15:32:55.634Z,20.61
2023-05-02T15:34:57.053Z,20.62
2023-05-02T15:36:58.368Z,20.64
2023-05-02T15:38:59.695Z,20.60
2023-05-02T15:41:01.032Z,20.55
2023-05-02T15:43:02.333Z,20.52
2023-05-02T15:45:04.165Z,20.50
2023-05-02T15:47:05.523Z,20.49
2023-05-02T15:49:06.866Z,20.45
2023-05-02T15:51:10.693Z,20.38
2023-05-02T15:53:12.032Z,20.33
2023-05-02T15:55:13.511Z,20.30
2023-05-02T15:57:14.833Z,20.26
2023-05-02T15:59:16.180Z,20.23
2023-05-02T16:01:17.599Z,20.21
2023-05-02T16:03:19.080Z,20.20
2023-05-02T16:05:20.560Z,20.24
2023-05-02T16:07:21.994Z,20.25
2023-05-02T16:09:23.332Z,20.28
2023-05-02T16:11:24.635Z,20.31
2023-05-02T16:13:28.897Z,20.33
2023-05-02T16:15:30.576Z,20.36
2023-05-02T16:17:32.035Z,20.37
2023-05-02T16:19:33.414Z,20.40
2023-05-02T16:21:35.430Z,20.44
2023-05-02T16:23:36.846Z,20.55
2023-05-02T16:25:39.105Z,20.52
2023-05-02T16:27:40.978Z,20.45
2023-05-02T16:29:42.572Z,20.41
2023-05-02T16:31:44.750Z,20.38
2023-05-02T16:33:46.658Z,20.35
2023-05-02T16:35:47.996Z,20.34
2023-05-02T16:37:49.491Z,20.35
2023-05-02T16:39:53.954Z,20.35
2023-05-02T16:41:58.320Z,21.00
2023-05-02T16:43:59.649Z,21.62
2023-05-02T16:46:04.061Z,21.78
2023-05-02T16:48:05.816Z,21.93
2023-05-02T16:50:07.621Z,22.20
2023-05-02T16:52:08.964Z,22.36
2023-05-02T16:54:11.102Z,22.22
2023-05-02T16:56:12.490Z,22.02
2023-05-02T16:58:13.823Z,21.71
2023-05-02T17:00:15.223Z,21.67
2023-05-02T17:02:16.850Z,21.73
2023-05-02T17:04:18.265Z,22.31
2023-05-02T17:06:19.673Z,22.16
2023-05-02T17:08:21.019Z,22.66
2023-05-02T17:10:22.462Z,22.80
2023-05-02T17:12:24.730Z,22.85
2023-05-02T17:14:26.096Z,22.67
2023-05-02T17:16:27.422Z,22.40
2023-05-02T17:18:28.889Z,22.25
2023-05-02T17:20:31.152Z,22.25
2023-05-02T17:22:35.358Z,22.20
2023-05-02T17:24:37.302Z,22.21
2023-05-02T17:26:38.599Z,22.18
2023-05-02T17:28:40.176Z,22.19
2023-05-02T17:30:41.865Z,22.15
2023-05-02T17:32:43.429Z,22.16
2023-05-02T17:34:45.047Z,22.17
2023-05-02T17:36:47.216Z,22.13
2023-05-02T17:38:48.508Z,21.82
2023-05-02T17:40:49.825Z,21.61
2023-05-02T17:42:51.136Z,21.47
2023-05-02T17:44:52.447Z,21.38
2023-05-02T17:46:53.826Z,21.34
2023-05-02T17:48:55.421Z,21.79
2023-05-02T17:50:56.720Z,22.20
2023-05-02T17:52:59.189Z,22.65
2023-05-02T17:55:00.579Z,22.42
2023-05-02T17:57:02.096Z,22.74
2023-05-02T17:59:04.962Z,22.42
2023-05-02T18:01:06.355Z,22.31
2023-05-02T18:03:08.306Z,22.28
2023-05-02T18:05:09.842Z,22.31
2023-05-02T18:07:11.155Z,22.27
2023-05-02T18:09:12.673Z,22.28
2023-05-02T18:11:14.106Z,22.69
2023-05-02T18:13:15.418Z,22.62
2023-05-02T18:15:22.656Z,22.43
2023-05-02T18:17:24.271Z,22.37
2023-05-02T18:19:25.700Z,22.33
2023-05-02T18:21:28.069Z,22.32
2023-05-02T18:23:29.450Z,22.04
2023-05-02T18:25:30.755Z,21.91
2023-05-02T18:27:32.164Z,22.08
2023-05-02T18:29:33.719Z,22.21
2023-05-02T18:31:36.139Z,22.31
2023-05-02T18:33:37.536Z,23.06
2023-05-02T18:35:38.860Z,23.06
2023-05-02T18:37:40.325Z,23.07
2023-05-02T18:39:41.655Z,22.94
2023-05-02T18:41:42.983Z,22.62
2023-05-02T18:43:44.293Z,22.58
2023-05-02T18:45:45.706Z,22.65
2023-05-02T18:47:47.057Z,22.70
2023-05-02T18:49:51.604Z,22.72
2023-05-02T18:51:52.913Z,22.70
2023-05-02T18:53:54.216Z,22.71
2023-05-02T18:55:55.626Z,22.73
2023-05-02T18:57:56.933Z,22.77
2023-05-02T19:00:02.166Z,22.79
2023-05-02T19:02:03.546Z,22.79
2023-05-02T19:04:07.590Z,22.81
2023-05-02T19:06:09.292Z,22.79
2023-05-02T19:08:10.662Z,22.78
2023-05-02T19:10:15.283Z,22.77
2023-05-02T19:12:16.637Z,22.80
2023-05-02T19:14:20.595Z,22.77
2023-05-02T19:16:25.545Z,22.52
2023-05-02T19:18:27.000Z,22.51
2023-05-02T19:20:29.580Z,23.17
2023-05-02T19:22:34.315Z,23.65
2023-05-02T19:24:35.671Z,23.53
2023-05-02T19:26:36.968Z,23.67
2023-05-02T19:28:40.929Z,23.48
2023-05-02T19:30:45.098Z,23.58
2023-05-02T19:32:46.458Z,23.48
2023-05-02T19:34:48.053Z,23.18
2023-05-02T19:36:49.371Z,23.59
2023-05-02T19:38:51.059Z,23.20
2023-05-02T19:40:55.016Z,22.96
2023-05-02T19:42:56.405Z,22.84
2023-05-02T19:44:57.901Z,22.79
2023-05-02T19:46:59.204Z,22.72
2023-05-02T19:49:00.608Z,22.17
2023-05-02T19:51:02.579Z,22.97
2023-05-02T19:53:05.295Z,22.83
2023-05-02T19:55:07.066Z,22.65
2023-05-02T19:57:11.132Z,22.60
2023-05-02T19:59:18.737Z,22.60
2023-05-02T20:01:20.118Z,22.55
2023-05-02T20:03:21.632Z,22.50
2023-05-02T20:05:23.027Z,22.44
2023-05-02T20:07:24.537Z,22.41
2023-05-02T20:09:25.865Z,22.40
2023-05-02T20:11:30.192Z,22.38
2023-05-02T20:13:31.521Z,22.36
2023-05-02T20:15:32.868Z,22.33
2023-05-02T20:17:34.303Z,22.34
2023-05-02T20:19:35.664Z,22.35
2023-05-02T20:21:36.970Z,22.42
2023-05-02T20:23:39.409Z,22.42
2023-05-02T20:25:42.653Z,22.41
2023-05-02T20:27:44.332Z,22.38
2023-05-02T20:29:45.731Z,21.50
2023-05-02T20:31:47.099Z,19.64
2023-05-02T20:33:48.482Z,18.95
2023-05-02T20:35:49.842Z,18.72
2023-05-02T20:37:51.183Z,19.20
2023-05-02T20:39:52.586Z,20.15
2023-05-02T20:41:53.999Z,20.69
2023-05-02T20:43:57.107Z,20.92
2023-05-02T20:45:58.492Z,21.03
2023-05-02T20:47:59.934Z,21.07
2023-05-02T20:50:02.089Z,21.10
2023-05-02T20:52:03.714Z,21.12
2023-05-02T20:54:05.380Z,21.14
2023-05-02T20:56:07.154Z,21.17
2023-05-02T20:58:08.467Z,21.22
2023-05-02T21:00:11.471Z,21.28
2023-05-02T21:02:15.595Z,21.33
2023-05-02T21:04:17.047Z,21.38
2023-05-02T21:06:18.459Z,21.43
2023-05-02T21:08:19.780Z,21.48
2023-05-02T21:10:22.516Z,21.51
2023-05-02T21:12:23.809Z,21.53
2023-05-02T21:14:25.150Z,21.55
2023-05-02T21:16:26.547Z,21.53
2023-05-02T21:18:27.955Z,21.52
2023-05-02T21:20:29.294Z,21.50
2023-05-02T21:22:30.978Z,21.51
2023-05-02T21:24:32.284Z,21.48
2023-05-02T21:26:33.692Z,21.47
2023-05-02T21:28:35.064Z,21.46
2023-05-02T21:30:36.404Z,21.46
2023-05-02T21:32:37.795Z,21.46
2023-05-02T21:34:39.119Z,21.45
2023-05-02T21:36:42.089Z,21.44
2023-05-02T21:38:43.487Z,21.45
2023-05-02T21:40:44.814Z,21.45
2023-05-02T21:42:46.103Z,21.43
2023-05-02T21:44:47.408Z,21.43
2023-05-02T21:46:48.726Z,21.41
2023-05-02T21:48:50.085Z,21.38
2023-05-02T21:50:51.521Z,21.34
2023-05-02T21:52:52.858Z,21.31
2023-05-02T21:54:54.523Z,21.29
2023-05-02T21:56:55.862Z,21.28
2023-05-02T21:58:57.186Z,21.25
2023-05-02T22:00:58.801Z,21.25
2023-05-02T22:03:01.770Z,21.22
2023-05-02T22:05:04.778Z,21.19
2023-05-02T22:07:06.123Z,21.17
2023-05-02T22:09:09.661Z,21.20
2023-05-02T22:11:11.455Z,20.39
2023-05-02T22:13:13.129Z,21.25
2023-05-02T22:15:14.466Z,21.23
2023-05-02T22:17:18.518Z,21.24
2023-05-02T22:19:19.848Z,21.21
2023-05-02T22:21:21.143Z,21.21
2023-05-02T22:23:22.502Z,21.20
2023-05-02T22:25:23.804Z,21.19
2023-05-02T22:27:25.145Z,21.20
2023-05-02T22:29:26.726Z,21.20
2023-05-02T22:31:28.182Z,21.25
2023-05-02T22:33:29.552Z,21.24
2023-05-02T22:35:31.045Z,21.21
2023-05-02T22:37:32.372Z,21.21
2023-05-02T22:39:33.865Z,21.17
2023-05-02T22:41:35.396Z,21.19
2023-05-02T22:43:36.735Z,21.22
2023-05-02T22:45:38.425Z,21.22
2023-05-02T22:47:40.555Z,21.23
2023-05-02T22:49:42.930Z,21.21
2023-05-02T22:51:45.191Z,21.23
2023-05-02T22:53:46.531Z,21.24
2023-05-02T22:55:47.878Z,21.22
2023-05-02T22:57:49.171Z,21.25
2023-05-02T22:59:50.507Z,21.28
2023-05-02T23:01:52.034Z,21.25
2023-05-02T23:03:53.571Z,21.22
2023-05-02T23:05:54.986Z,21.20
2023-05-02T23:07:56.340Z,21.18
2023-05-02T23:09:57.649Z,21.20
2023-05-02T23:11:58.965Z,21.21
2023-05-02T23:14:01.082Z,21.21
2023-05-02T23:16:02.429Z,21.20
2023-05-02T23:18:03.868Z,21.20
2023-05-02T23:20:05.324Z,21.20
2023-05-02T23:22:06.731Z,21.24
2023-05-02T23:24:08.049Z,21.23
2023-05-02T23:26:09.363Z,21.21
2023-05-02T23:28:10.670Z,21.20
2023-05-02T23:30:11.984Z,21.24
2023-05-02T23:32:13.283Z,21.22
2023-05-02T23:34:14.612Z,21.22
2023-05-02T23:36:16.262Z,21.22
2023-05-02T23:38:17.558Z,21.22
2023-05-02T23:40:18.879Z,21.21
2023-05-02T23:42:20.181Z,20.38
2023-05-02T23:44:21.509Z,21.25
2023-05-02T23:46:22.845Z,21.26
2023-05-02T23:48:24.159Z,21.24
2023-05-02T23:50:25.472Z,21.21
2023-05-02T23:52:26.832Z,21.20
2023-05-02T23:54:30.786Z,21.19
2023-05-02T23:56:33.071Z,21.18
2023-05-02T23:58:34.382Z,21.19
